createdAt,value
2017-07-21T00:00:10.967Z,0
2017-07-21T00:01:33.137Z,0
2017-07-21T00:02:55.566Z,0
2017-07-21T00:04:17.415Z,0
2017-07-21T00:05:39.916Z,0
2017-07-21T00:07:02.074Z,0
2017-07-21T00:08:24.459Z,0
2017-07-21T00:09:46.727Z,0
2017-07-21T00:11:08.273Z,0
2017-07-21T00:12:30.137Z,0
2017-07-21T00:13:52.588Z,0
2017-07-21T00:15:14.434Z,0
2017-07-21T00:16:35.631Z,0
2017-07-21T00:17:57.466Z,0
2017-07-21T00:19:19.564Z,0
2017-07-21T00:20:40.768Z,0
2017-07-21T00:22:02.308Z,0
2017-07-21T00:23:23.964Z,0
2017-07-21T00:24:46.294Z,0
2017-07-21T00:26:08.456Z,0
2017-07-21T00:27:30.621Z,0
2017-07-21T00:28:51.828Z,0
2017-07-21T00:30:14.006Z,0
2017-07-21T00:31:36.261Z,0
2017-07-21T00:32:58.727Z,0
2017-07-21T00:34:20.276Z,0
2017-07-21T00:35:42.267Z,0
2017-07-21T00:37:04.468Z,0
2017-07-21T00:38:26.285Z,0
2017-07-21T00:39:48.140Z,0
2017-07-21T00:41:09.934Z,0
2017-07-21T00:42:32.128Z,0
2017-07-21T00:43:54.327Z,0
2017-07-21T00:45:15.846Z,0
2017-07-21T00:46:38.587Z,0
2017-07-21T00:48:00.094Z,0
2017-07-21T00:49:21.606Z,0
2017-07-21T00:50:43.797Z,0
2017-07-21T00:52:05.686Z,0
2017-07-21T00:53:27.208Z,0
2017-07-21T00:54:49.040Z,0
2017-07-21T00:56:10.367Z,0
2017-07-21T00:57:32.170Z,0
2017-07-21T00:58:54.337Z,0
2017-07-21T01:00:16.559Z,0
2017-07-21T01:01:38.706Z,0
2017-07-21T01:03:00.846Z,0
2017-07-21T01:04:22.697Z,0
2017-07-21T01:05:45.158Z,0
2017-07-21T01:07:07.418Z,0
2017-07-21T01:08:29.528Z,0
2017-07-21T01:09:51.388Z,0
2017-07-21T01:11:13.256Z,0
2017-07-21T01:12:35.088Z,0
2017-07-21T01:13:57.518Z,0
2017-07-21T01:15:19.775Z,0
2017-07-21T01:16:42.357Z,0
2017-07-21T01:18:03.935Z,0
2017-07-21T01:19:25.499Z,0
2017-07-21T01:20:47.337Z,0
2017-07-21T01:22:08.541Z,0
2017-07-21T01:23:30.368Z,0
2017-07-21T01:24:52.580Z,0
2017-07-21T01:26:15.038Z,0
2017-07-21T01:27:36.869Z,0
2017-07-21T01:28:58.704Z,0
2017-07-21T01:30:20.838Z,0
2017-07-21T01:31:43.066Z,0
2017-07-21T01:33:04.904Z,0
2017-07-21T01:34:27.134Z,0
2017-07-21T01:35:49.528Z,0
2017-07-21T01:37:12.113Z,0
2017-07-21T01:38:34.368Z,0
2017-07-21T01:39:56.198Z,0
2017-07-21T01:41:18.888Z,0
2017-07-21T01:42:40.717Z,0
2017-07-21T01:44:02.283Z,0
2017-07-21T01:45:23.806Z,0
2017-07-21T01:46:46.270Z,0
2017-07-21T01:48:08.427Z,0
2017-07-21T01:49:29.983Z,0
2017-07-21T01:50:51.801Z,0
2017-07-21T01:52:13.696Z,0
2017-07-21T01:53:35.543Z,0
2017-07-21T01:54:57.738Z,0
2017-07-21T01:56:19.595Z,0
2017-07-21T01:57:41.927Z,0
2017-07-21T01:59:04.069Z,0
2017-07-21T02:00:26.577Z,0
2017-07-21T02:01:48.777Z,0
2017-07-21T02:03:11.028Z,0
2017-07-21T02:04:33.542Z,0
2017-07-21T02:05:55.707Z,0
2017-07-21T02:07:17.858Z,0
2017-07-21T02:08:40.090Z,0
2017-07-21T02:10:02.357Z,0
2017-07-21T02:11:24.860Z,0
2017-07-21T02:12:46.473Z,0
2017-07-21T02:14:08.358Z,0
2017-07-21T02:15:30.187Z,0
2017-07-21T02:16:52.035Z,0
2017-07-21T02:18:14.186Z,0
2017-07-21T02:19:36.885Z,0
2017-07-21T02:20:59.039Z,0
2017-07-21T02:22:20.569Z,0
2017-07-21T02:23:42.220Z,0
2017-07-21T02:25:04.778Z,0
2017-07-21T02:26:26.622Z,0
2017-07-21T02:27:48.165Z,0
2017-07-21T02:29:10.020Z,0
2017-07-21T02:30:32.276Z,0
2017-07-21T02:31:54.429Z,0
2017-07-21T02:33:16.437Z,0
2017-07-21T02:34:38.398Z,0
2017-07-21T02:36:00.318Z,0
2017-07-21T02:37:22.158Z,0
2017-07-21T02:38:43.972Z,0
2017-07-21T02:40:05.488Z,0
2017-07-21T02:41:27.687Z,0
2017-07-21T02:42:49.867Z,0
2017-07-21T02:44:12.456Z,0
2017-07-21T02:45:34.593Z,0
2017-07-21T02:46:56.668Z,0
2017-07-21T02:48:18.499Z,0
2017-07-21T02:49:40.718Z,0
2017-07-21T02:51:02.887Z,0
2017-07-21T02:52:25.627Z,0
2017-07-21T02:53:47.508Z,0
2017-07-21T02:55:09.359Z,0
2017-07-21T02:56:31.514Z,0
2017-07-21T02:57:53.688Z,0
2017-07-21T02:59:15.818Z,0
2017-07-21T03:00:38.296Z,0
2017-07-21T03:02:00.451Z,0
2017-07-21T03:03:22.546Z,0
2017-07-21T03:04:44.818Z,0
2017-07-21T03:06:06.967Z,0
2017-07-21T03:07:28.795Z,0
2017-07-21T03:08:50.867Z,0
2017-07-21T03:10:13.430Z,0
2017-07-21T03:11:35.256Z,0
2017-07-21T03:12:57.778Z,0
2017-07-21T03:14:20.267Z,5
2017-07-21T03:15:42.399Z,5
2017-07-21T03:17:03.926Z,5
2017-07-21T03:18:25.758Z,5
2017-07-21T03:19:47.918Z,5
2017-07-21T03:21:09.433Z,5
2017-07-21T03:22:31.578Z,5
2017-07-21T03:23:54.038Z,10
2017-07-21T03:25:16.148Z,10
2017-07-21T03:26:38.607Z,10
2017-07-21T03:28:00.190Z,10
2017-07-21T03:29:21.083Z,10
2017-07-21T03:30:42.610Z,15
2017-07-21T03:32:05.099Z,15
2017-07-21T03:33:26.937Z,15
2017-07-21T03:34:48.167Z,20
2017-07-21T03:36:09.930Z,20
2017-07-21T03:37:32.071Z,20
2017-07-21T03:38:53.898Z,25
2017-07-21T03:40:15.517Z,25
2017-07-21T03:41:37.925Z,25
2017-07-21T03:43:00.178Z,30
2017-07-21T03:44:21.698Z,30
2017-07-21T03:45:43.227Z,35
2017-07-21T03:47:05.346Z,40
2017-07-21T03:48:27.802Z,40
2017-07-21T03:49:49.467Z,45
2017-07-21T03:51:11.344Z,45
2017-07-21T03:52:33.105Z,50
2017-07-21T03:53:54.925Z,45
2017-07-21T03:55:16.754Z,50
2017-07-21T03:56:38.288Z,50
2017-07-21T03:58:01.092Z,55
2017-07-21T03:59:22.977Z,55
2017-07-21T04:00:44.494Z,60
2017-07-21T04:02:06.649Z,60
2017-07-21T04:03:29.367Z,60
2017-07-21T04:04:51.193Z,65
2017-07-21T04:06:12.415Z,65
2017-07-21T04:07:34.562Z,70
2017-07-21T04:08:57.241Z,70
2017-07-21T04:10:18.788Z,70
2017-07-21T04:11:39.998Z,75
2017-07-21T04:13:02.466Z,75
2017-07-21T04:14:25.014Z,80
2017-07-21T04:15:46.575Z,80
2017-07-21T04:17:07.833Z,85
2017-07-21T04:18:29.977Z,90
2017-07-21T04:19:52.268Z,90
2017-07-21T04:21:14.428Z,95
2017-07-21T04:22:35.937Z,100
2017-07-21T04:23:57.762Z,100
2017-07-21T04:25:20.366Z,105
2017-07-21T04:26:42.507Z,110
2017-07-21T04:28:04.395Z,110
2017-07-21T04:29:26.214Z,115
2017-07-21T04:30:48.308Z,120
2017-07-21T04:32:10.797Z,120
2017-07-21T04:33:32.723Z,125
2017-07-21T04:34:54.871Z,135
2017-07-21T04:36:16.727Z,135
2017-07-21T04:37:38.926Z,145
2017-07-21T04:39:00.767Z,150
2017-07-21T04:40:22.371Z,155
2017-07-21T04:41:44.472Z,160
2017-07-21T04:43:06.718Z,160
2017-07-21T04:44:28.982Z,160
2017-07-21T04:45:50.818Z,175
2017-07-21T04:47:13.057Z,185
2017-07-21T04:48:35.564Z,185
2017-07-21T04:49:57.726Z,185
2017-07-21T04:51:19.866Z,185
2017-07-21T04:52:41.979Z,190
2017-07-21T04:54:04.126Z,190
2017-07-21T04:55:26.427Z,195
2017-07-21T04:56:48.297Z,195
2017-07-21T04:58:10.969Z,200
2017-07-21T04:59:33.248Z,205
2017-07-21T05:00:55.099Z,205
2017-07-21T05:02:17.277Z,210
2017-07-21T05:03:39.726Z,220
2017-07-21T05:05:01.918Z,235
2017-07-21T05:06:23.776Z,275
2017-07-21T05:07:45.288Z,510
2017-07-21T05:09:07.997Z,590
2017-07-21T05:10:29.813Z,580
2017-07-21T05:11:51.659Z,535
2017-07-21T05:13:13.853Z,555
2017-07-21T05:14:36.365Z,560
2017-07-21T05:15:58.576Z,595
2017-07-21T05:17:21.052Z,630
2017-07-21T05:18:43.208Z,725
2017-07-21T05:20:05.746Z,800
2017-07-21T05:21:27.597Z,775
2017-07-21T05:22:49.849Z,825
2017-07-21T05:24:12.088Z,840
2017-07-21T05:25:35.040Z,875
2017-07-21T05:26:57.277Z,820
2017-07-21T05:28:19.112Z,915
2017-07-21T05:29:41.467Z,935
2017-07-21T05:31:04.355Z,955
2017-07-21T05:32:25.577Z,970
2017-07-21T05:33:48.076Z,975
2017-07-21T05:35:09.926Z,1070
2017-07-21T05:36:32.337Z,1070
2017-07-21T05:37:54.509Z,955
2017-07-21T05:39:16.827Z,1010
2017-07-21T05:40:38.993Z,930
2017-07-21T05:42:00.779Z,1125
2017-07-21T05:43:22.443Z,1100
2017-07-21T05:44:44.633Z,1040
2017-07-21T05:46:07.118Z,1085
2017-07-21T05:47:29.405Z,1050
2017-07-21T05:48:51.877Z,995
2017-07-21T05:50:14.343Z,910
2017-07-21T05:51:36.198Z,900
2017-07-21T05:52:58.767Z,835
2017-07-21T05:54:20.662Z,805
2017-07-21T05:55:42.894Z,755
2017-07-21T05:57:04.720Z,720
2017-07-21T05:58:26.887Z,700
2017-07-21T05:59:48.527Z,670
2017-07-21T06:01:10.793Z,670
2017-07-21T06:02:32.784Z,635
2017-07-21T06:03:55.244Z,615
2017-07-21T06:05:17.097Z,685
2017-07-21T06:06:38.957Z,695
2017-07-21T06:08:01.111Z,625
2017-07-21T06:09:23.369Z,640
2017-07-21T06:10:44.907Z,455
2017-07-21T06:12:06.808Z,485
2017-07-21T06:13:29.390Z,685
2017-07-21T06:14:51.557Z,675
2017-07-21T06:16:13.417Z,665
2017-07-21T06:17:35.957Z,685
2017-07-21T06:18:58.455Z,625
2017-07-21T06:20:20.617Z,505
2017-07-21T06:21:42.938Z,575
2017-07-21T06:23:05.419Z,520
2017-07-21T06:24:27.327Z,515
2017-07-21T06:25:49.917Z,495
2017-07-21T06:27:11.450Z,335
2017-07-21T06:28:33.905Z,530
2017-07-21T06:29:56.058Z,405
2017-07-21T06:31:18.570Z,580
2017-07-21T06:32:39.923Z,590
2017-07-21T06:34:01.448Z,610
2017-07-21T06:35:23.940Z,505
2017-07-21T06:36:46.417Z,520
2017-07-21T06:38:07.968Z,545
2017-07-21T06:39:30.228Z,620
2017-07-21T06:40:52.716Z,680
2017-07-21T06:42:14.868Z,400
2017-07-21T06:43:37.050Z,335
2017-07-21T06:44:59.227Z,305
2017-07-21T06:46:21.129Z,300
2017-07-21T06:47:43.546Z,465
2017-07-21T06:49:05.857Z,490
2017-07-21T06:50:28.050Z,535
2017-07-21T06:51:49.898Z,550
2017-07-21T06:53:12.689Z,470
2017-07-21T06:54:35.218Z,405
2017-07-21T06:55:57.065Z,465
2017-07-21T06:57:19.233Z,575
2017-07-21T06:58:40.920Z,570
2017-07-21T07:00:03.436Z,575
2017-07-21T07:01:25.318Z,590
2017-07-21T07:02:47.496Z,570
2017-07-21T07:04:09.088Z,570
2017-07-21T07:05:30.599Z,480
2017-07-21T07:06:52.818Z,425
2017-07-21T07:08:14.365Z,305
2017-07-21T07:09:36.562Z,540
2017-07-21T07:10:58.402Z,515
2017-07-21T07:12:20.570Z,540
2017-07-21T07:13:42.418Z,525
2017-07-21T07:15:04.503Z,515
2017-07-21T07:16:26.696Z,475
2017-07-21T07:17:48.888Z,570
2017-07-21T07:19:11.364Z,570
2017-07-21T07:20:33.726Z,580
2017-07-21T07:21:56.203Z,580
2017-07-21T07:23:17.755Z,565
2017-07-21T07:24:39.278Z,580
2017-07-21T07:26:01.809Z,565
2017-07-21T07:27:23.699Z,570
2017-07-21T07:28:46.324Z,580
2017-07-21T07:30:08.197Z,570
2017-07-21T07:31:30.063Z,575
2017-07-21T07:32:52.004Z,585
2017-07-21T07:34:14.486Z,550
2017-07-21T07:35:36.367Z,580
2017-07-21T07:36:58.256Z,560
2017-07-21T07:38:19.809Z,560
2017-07-21T07:39:41.738Z,540
2017-07-21T07:41:04.229Z,555
2017-07-21T07:42:26.697Z,560
2017-07-21T07:43:48.293Z,570
2017-07-21T07:45:10.187Z,565
2017-07-21T07:46:32.367Z,575
2017-07-21T07:47:54.845Z,570
2017-07-21T07:49:17.348Z,545
2017-07-21T07:50:38.900Z,525
2017-07-21T07:52:01.128Z,535
2017-07-21T07:53:23.321Z,540
2017-07-21T07:54:45.534Z,555
2017-07-21T07:56:08.036Z,555
2017-07-21T07:57:30.238Z,505
2017-07-21T07:58:51.712Z,475
2017-07-21T08:00:13.579Z,475
2017-07-21T08:01:35.229Z,465
2017-07-21T08:02:57.714Z,465
2017-07-21T08:04:19.937Z,480
2017-07-21T08:05:42.117Z,465
2017-07-21T08:07:03.366Z,460
2017-07-21T08:08:25.208Z,460
2017-07-21T08:09:48.082Z,465
2017-07-21T08:11:09.986Z,475
2017-07-21T08:12:32.183Z,480
2017-07-21T08:13:54.127Z,480
2017-07-21T08:15:16.948Z,430
2017-07-21T08:16:39.128Z,405
2017-07-21T08:18:01.286Z,430
2017-07-21T08:19:23.149Z,415
2017-07-21T08:20:45.583Z,300
2017-07-21T08:22:07.438Z,260
2017-07-21T08:23:29.366Z,250
2017-07-21T08:24:50.976Z,250
2017-07-21T08:26:13.828Z,280
2017-07-21T08:27:36.007Z,270
2017-07-21T08:28:58.187Z,250
2017-07-21T08:30:20.346Z,225
2017-07-21T08:31:43.207Z,225
2017-07-21T08:33:05.507Z,255
2017-07-21T08:34:27.367Z,240
2017-07-21T08:35:49.539Z,230
2017-07-21T08:37:12.185Z,230
2017-07-21T08:38:33.737Z,230
2017-07-21T08:39:55.918Z,235
2017-07-21T08:41:18.148Z,235
2017-07-21T08:42:40.911Z,240
2017-07-21T08:44:02.149Z,235
2017-07-21T08:45:24.737Z,235
2017-07-21T08:46:46.897Z,235
2017-07-21T08:48:08.988Z,235
2017-07-21T08:49:31.486Z,235
2017-07-21T08:50:53.377Z,240
2017-07-21T08:52:15.289Z,220
2017-07-21T08:53:37.765Z,210
2017-07-21T08:54:59.606Z,210
2017-07-21T08:56:21.488Z,210
2017-07-21T08:57:43.677Z,225
2017-07-21T08:59:05.878Z,235
2017-07-21T09:00:27.717Z,245
2017-07-21T09:01:49.584Z,235
2017-07-21T09:03:12.058Z,235
2017-07-21T09:04:34.301Z,235
2017-07-21T09:05:56.448Z,235
2017-07-21T09:07:18.067Z,235
2017-07-21T09:08:39.906Z,235
2017-07-21T09:10:02.351Z,235
2017-07-21T09:11:24.223Z,235
2017-07-21T09:12:46.457Z,235
2017-07-21T09:14:08.047Z,245
2017-07-21T09:15:30.139Z,235
2017-07-21T09:16:52.326Z,235
2017-07-21T09:18:14.158Z,235
2017-07-21T09:19:36.006Z,235
2017-07-21T09:20:57.859Z,235
2017-07-21T09:22:19.446Z,235
2017-07-21T09:23:41.626Z,230
2017-07-21T09:25:03.502Z,230
2017-07-21T09:26:25.689Z,235
2017-07-21T09:27:47.874Z,235
2017-07-21T09:29:09.710Z,235
2017-07-21T09:30:31.549Z,240
2017-07-21T09:31:54.057Z,245
2017-07-21T09:33:16.229Z,260
2017-07-21T09:34:38.407Z,215
2017-07-21T09:36:00.644Z,215
2017-07-21T09:37:23.180Z,220
2017-07-21T09:38:45.324Z,220
2017-07-21T09:40:07.789Z,225
2017-07-21T09:41:29.630Z,220
2017-07-21T09:42:51.913Z,250
2017-07-21T09:44:14.148Z,280
2017-07-21T09:45:35.658Z,270
2017-07-21T09:46:58.208Z,260
2017-07-21T09:48:20.781Z,255
2017-07-21T09:49:42.305Z,235
2017-07-21T09:51:04.561Z,265
2017-07-21T09:52:26.467Z,270
2017-07-21T09:53:49.240Z,245
2017-07-21T09:55:11.109Z,270
2017-07-21T09:56:33.586Z,265
2017-07-21T09:57:56.055Z,255
2017-07-21T09:59:17.909Z,250
2017-07-21T10:00:40.067Z,245
2017-07-21T10:02:02.227Z,245
2017-07-21T10:03:24.423Z,245
2017-07-21T10:04:47.331Z,250
2017-07-21T10:06:08.867Z,255
2017-07-21T10:07:30.086Z,260
2017-07-21T10:08:52.275Z,265
2017-07-21T10:10:14.407Z,270
2017-07-21T10:11:36.579Z,280
2017-07-21T10:12:58.440Z,290
2017-07-21T10:14:20.656Z,305
2017-07-21T10:15:42.175Z,320
2017-07-21T10:17:04.106Z,310
2017-07-21T10:18:26.265Z,300
2017-07-21T10:19:48.826Z,290
2017-07-21T10:21:10.008Z,320
2017-07-21T10:22:32.502Z,330
2017-07-21T10:23:54.676Z,295
2017-07-21T10:25:16.189Z,270
2017-07-21T10:26:38.669Z,260
2017-07-21T10:28:00.827Z,255
2017-07-21T10:29:23.084Z,255
2017-07-21T10:30:45.247Z,265
2017-07-21T10:32:07.796Z,265
2017-07-21T10:33:30.257Z,260
2017-07-21T10:34:52.863Z,280
2017-07-21T10:36:15.161Z,280
2017-07-21T10:37:37.718Z,255
2017-07-21T10:38:59.567Z,255
2017-07-21T10:40:21.794Z,240
2017-07-21T10:41:43.636Z,240
2017-07-21T10:43:06.040Z,240
2017-07-21T10:44:27.896Z,240
2017-07-21T10:45:49.213Z,235
2017-07-21T10:47:11.703Z,230
2017-07-21T10:48:34.148Z,230
2017-07-21T10:49:56.626Z,230
2017-07-21T10:51:19.127Z,250
2017-07-21T10:52:41.020Z,265
2017-07-21T10:54:03.514Z,255
2017-07-21T10:55:25.026Z,280
2017-07-21T10:56:47.512Z,260
2017-07-21T10:58:09.412Z,255
2017-07-21T10:59:31.883Z,250
2017-07-21T11:00:54.067Z,255
2017-07-21T11:02:16.309Z,250
2017-07-21T11:03:38.595Z,240
2017-07-21T11:05:01.126Z,245
2017-07-21T11:06:23.605Z,235
2017-07-21T11:07:45.465Z,250
2017-07-21T11:09:07.016Z,250
2017-07-21T11:10:29.493Z,235
2017-07-21T11:11:51.337Z,235
2017-07-21T11:13:13.671Z,250
2017-07-21T11:14:35.826Z,260
2017-07-21T11:15:57.926Z,300
2017-07-21T11:17:20.386Z,320
2017-07-21T11:18:42.257Z,345
2017-07-21T11:20:04.753Z,340
2017-07-21T11:21:26.907Z,325
2017-07-21T11:22:49.067Z,310
2017-07-21T11:24:10.296Z,295
2017-07-21T11:25:32.800Z,305
2017-07-21T11:26:55.588Z,330
2017-07-21T11:28:17.775Z,350
2017-07-21T11:29:39.396Z,350
2017-07-21T11:31:00.624Z,365
2017-07-21T11:32:23.396Z,360
2017-07-21T11:33:45.556Z,360
2017-07-21T11:35:07.135Z,355
2017-07-21T11:36:28.666Z,350
2017-07-21T11:37:50.858Z,330
2017-07-21T11:39:13.035Z,340
2017-07-21T11:40:35.236Z,335
2017-07-21T11:41:56.846Z,350
2017-07-21T11:43:19.379Z,355
2017-07-21T11:44:41.676Z,355
2017-07-21T11:46:03.846Z,380
2017-07-21T11:47:25.690Z,405
2017-07-21T11:48:48.109Z,435
2017-07-21T11:50:09.645Z,415
2017-07-21T11:51:31.494Z,410
2017-07-21T11:52:53.692Z,390
2017-07-21T11:54:16.252Z,360
2017-07-21T11:55:37.776Z,350
2017-07-21T11:56:59.967Z,345
2017-07-21T11:58:22.176Z,320
2017-07-21T11:59:44.345Z,295
2017-07-21T12:01:06.806Z,275
2017-07-21T12:02:29.027Z,250
2017-07-21T12:03:51.550Z,235
2017-07-21T12:05:14.014Z,235
2017-07-21T12:06:36.167Z,230
2017-07-21T12:07:58.326Z,225
2017-07-21T12:09:20.496Z,245
2017-07-21T12:10:42.614Z,250
2017-07-21T12:12:04.575Z,290
2017-07-21T12:13:26.103Z,295
2017-07-21T12:14:47.950Z,270
2017-07-21T12:16:10.121Z,260
2017-07-21T12:17:32.616Z,260
2017-07-21T12:18:55.073Z,260
2017-07-21T12:20:16.909Z,255
2017-07-21T12:21:39.418Z,285
2017-07-21T12:23:00.980Z,285
2017-07-21T12:24:22.825Z,280
2017-07-21T12:25:44.680Z,290
2017-07-21T12:27:06.837Z,305
2017-07-21T12:28:28.395Z,330
2017-07-21T12:29:50.585Z,355
2017-07-21T12:31:12.463Z,370
2017-07-21T12:32:34.875Z,405
2017-07-21T12:33:56.577Z,435
2017-07-21T12:35:19.055Z,440
2017-07-21T12:36:41.546Z,465
2017-07-21T12:38:04.080Z,480
2017-07-21T12:39:26.677Z,460
2017-07-21T12:40:49.207Z,410
2017-07-21T12:42:11.806Z,350
2017-07-21T12:43:34.883Z,310
2017-07-21T12:44:57.146Z,290
2017-07-21T12:46:19.105Z,265
2017-07-21T12:47:41.679Z,255
2017-07-21T12:49:03.869Z,250
2017-07-21T12:50:25.749Z,245
2017-07-21T12:51:47.694Z,240
2017-07-21T12:53:09.573Z,240
2017-07-21T12:54:32.041Z,230
2017-07-21T12:55:54.017Z,220
2017-07-21T12:57:16.603Z,225
2017-07-21T12:58:38.439Z,220
2017-07-21T13:00:01.366Z,220
2017-07-21T13:01:23.208Z,210
2017-07-21T13:02:44.767Z,220
2017-07-21T13:04:06.628Z,220
2017-07-21T13:05:28.716Z,225
2017-07-21T13:06:51.206Z,225
2017-07-21T13:08:13.474Z,230
2017-07-21T13:09:35.085Z,230
2017-07-21T13:10:57.516Z,235
2017-07-21T13:12:19.397Z,215
2017-07-21T13:13:41.555Z,205
2017-07-21T13:15:03.759Z,200
2017-07-21T13:16:26.555Z,195
2017-07-21T13:17:48.407Z,210
2017-07-21T13:19:10.266Z,200
2017-07-21T13:20:32.453Z,200
2017-07-21T13:21:54.543Z,220
2017-07-21T13:23:17.096Z,220
2017-07-21T13:24:39.096Z,220
2017-07-21T13:26:01.712Z,225
2017-07-21T13:27:24.137Z,225
2017-07-21T13:28:46.314Z,225
2017-07-21T13:30:08.155Z,230
2017-07-21T13:31:30.666Z,225
2017-07-21T13:32:53.386Z,205
2017-07-21T13:34:15.857Z,200
2017-07-21T13:35:38.355Z,200
2017-07-21T13:37:00.324Z,205
2017-07-21T13:38:22.756Z,210
2017-07-21T13:39:45.245Z,215
2017-07-21T13:41:07.509Z,220
2017-07-21T13:42:29.125Z,235
2017-07-21T13:43:51.326Z,245
2017-07-21T13:45:13.814Z,265
2017-07-21T13:46:35.359Z,260
2017-07-21T13:47:57.558Z,260
2017-07-21T13:49:20.026Z,270
2017-07-21T13:50:42.173Z,280
2017-07-21T13:52:04.633Z,275
2017-07-21T13:53:26.645Z,285
2017-07-21T13:54:49.404Z,290
2017-07-21T13:56:11.700Z,290
2017-07-21T13:57:33.636Z,285
2017-07-21T13:58:55.677Z,295
2017-07-21T14:00:18.184Z,310
2017-07-21T14:01:40.668Z,295
2017-07-21T14:03:02.860Z,280
2017-07-21T14:04:25.006Z,260
2017-07-21T14:05:47.179Z,240
2017-07-21T14:07:09.028Z,235
2017-07-21T14:08:30.866Z,230
2017-07-21T14:09:53.036Z,260
2017-07-21T14:11:15.546Z,280
2017-07-21T14:12:37.406Z,285
2017-07-21T14:13:59.303Z,300
2017-07-21T14:15:21.487Z,320
2017-07-21T14:16:43.885Z,345
2017-07-21T14:18:05.831Z,355
2017-07-21T14:19:28.348Z,350
2017-07-21T14:20:50.207Z,375
2017-07-21T14:22:12.035Z,390
2017-07-21T14:23:34.196Z,395
2017-07-21T14:24:56.355Z,385
2017-07-21T14:26:18.344Z,355
2017-07-21T14:27:40.277Z,350
2017-07-21T14:29:02.436Z,350
2017-07-21T14:30:23.977Z,350
2017-07-21T14:31:45.873Z,365
2017-07-21T14:33:08.308Z,370
2017-07-21T14:34:29.856Z,365
2017-07-21T14:35:52.329Z,355
2017-07-21T14:37:14.484Z,355
2017-07-21T14:38:35.991Z,350
2017-07-21T14:39:58.146Z,345
2017-07-21T14:41:20.336Z,345
2017-07-21T14:42:42.227Z,345
2017-07-21T14:44:04.523Z,330
2017-07-21T14:45:26.076Z,315
2017-07-21T14:46:48.037Z,325
2017-07-21T14:48:09.880Z,320
2017-07-21T14:49:32.307Z,340
2017-07-21T14:50:54.135Z,335
2017-07-21T14:52:15.687Z,340
2017-07-21T14:53:37.540Z,345
2017-07-21T14:55:00.064Z,330
2017-07-21T14:56:21.908Z,315
2017-07-21T14:57:44.107Z,295
2017-07-21T14:59:06.589Z,280
2017-07-21T15:00:28.802Z,265
2017-07-21T15:01:50.987Z,260
2017-07-21T15:03:13.476Z,260
2017-07-21T15:04:35.748Z,255
2017-07-21T15:05:57.916Z,270
2017-07-21T15:07:20.102Z,280
2017-07-21T15:08:42.571Z,290
2017-07-21T15:10:04.734Z,290
2017-07-21T15:11:26.886Z,300
2017-07-21T15:12:49.057Z,305
2017-07-21T15:14:11.012Z,300
2017-07-21T15:15:33.267Z,300
2017-07-21T15:16:55.197Z,300
2017-07-21T15:18:17.375Z,315
2017-07-21T15:19:39.199Z,315
2017-07-21T15:21:00.763Z,320
2017-07-21T15:22:22.916Z,315
2017-07-21T15:23:45.081Z,320
2017-07-21T15:25:07.290Z,320
2017-07-21T15:26:29.842Z,305
2017-07-21T15:27:52.256Z,300
2017-07-21T15:29:14.196Z,285
2017-07-21T15:30:36.394Z,295
2017-07-21T15:31:57.950Z,300
2017-07-21T15:33:20.165Z,295
2017-07-21T15:34:42.360Z,285
2017-07-21T15:36:04.518Z,270
2017-07-21T15:37:26.708Z,270
2017-07-21T15:38:49.166Z,265
2017-07-21T15:40:11.363Z,250
2017-07-21T15:41:33.866Z,235
2017-07-21T15:42:56.056Z,235
2017-07-21T15:44:18.870Z,235
2017-07-21T15:45:40.727Z,240
2017-07-21T15:47:02.919Z,245
2017-07-21T15:48:25.097Z,260
2017-07-21T15:49:47.275Z,250
2017-07-21T15:51:09.747Z,235
2017-07-21T15:52:32.271Z,230
2017-07-21T15:53:54.776Z,220
2017-07-21T15:55:17.215Z,225
2017-07-21T15:56:39.388Z,210
2017-07-21T15:58:01.654Z,200
2017-07-21T15:59:23.190Z,200
2017-07-21T16:00:45.666Z,205
2017-07-21T16:02:07.868Z,205
2017-07-21T16:03:30.072Z,190
2017-07-21T16:04:52.636Z,190
2017-07-21T16:06:15.438Z,195
2017-07-21T16:07:37.598Z,200
2017-07-21T16:08:59.472Z,215
2017-07-21T16:10:21.767Z,220
2017-07-21T16:11:45.972Z,230
2017-07-21T16:13:08.456Z,235
2017-07-21T16:14:30.635Z,235
2017-07-21T16:15:52.486Z,235
2017-07-21T16:17:14.654Z,220
2017-07-21T16:18:36.514Z,210
2017-07-21T16:19:58.676Z,205
2017-07-21T16:21:20.916Z,220
2017-07-21T16:22:43.416Z,210
2017-07-21T16:24:06.063Z,200
2017-07-21T16:25:28.232Z,180
2017-07-21T16:26:50.393Z,180
2017-07-21T16:28:12.910Z,180
2017-07-21T16:29:34.818Z,170
2017-07-21T16:30:57.007Z,175
2017-07-21T16:32:18.549Z,180
2017-07-21T16:33:41.279Z,180
2017-07-21T16:35:03.468Z,175
2017-07-21T16:36:25.958Z,175
2017-07-21T16:37:47.922Z,175
2017-07-21T16:39:10.446Z,175
2017-07-21T16:40:33.015Z,170
2017-07-21T16:41:55.206Z,170
2017-07-21T16:43:17.476Z,170
2017-07-21T16:44:39.591Z,170
2017-07-21T16:46:01.759Z,170
2017-07-21T16:47:24.311Z,170
2017-07-21T16:48:46.533Z,170
2017-07-21T16:50:23.955Z,170
2017-07-21T16:51:47.016Z,170
2017-07-21T16:53:09.561Z,170
2017-07-21T16:54:31.463Z,165
2017-07-21T16:55:54.186Z,165
2017-07-21T16:57:16.016Z,165
2017-07-21T16:58:38.496Z,165
2017-07-21T17:00:00.748Z,165
2017-07-21T17:01:22.660Z,165
2017-07-21T17:02:45.165Z,160
2017-07-21T17:04:07.446Z,160
2017-07-21T17:05:29.627Z,160
2017-07-21T17:06:52.098Z,160
2017-07-21T17:08:14.265Z,160
2017-07-21T17:09:36.557Z,160
2017-07-21T17:10:59.193Z,155
2017-07-21T17:12:21.834Z,155
2017-07-21T17:13:44.338Z,155
2017-07-21T17:15:06.859Z,155
2017-07-21T17:16:29.199Z,155
2017-07-21T17:17:51.676Z,155
2017-07-21T17:19:14.198Z,155
2017-07-21T17:20:36.727Z,155
2017-07-21T17:21:59.207Z,150
2017-07-21T17:23:21.708Z,150
2017-07-21T17:24:44.367Z,150
2017-07-21T17:26:07.087Z,150
2017-07-21T17:27:28.988Z,145
2017-07-21T17:28:51.729Z,145
2017-07-21T17:30:14.226Z,145
2017-07-21T17:31:36.716Z,145
2017-07-21T17:32:58.886Z,140
2017-07-21T17:34:21.367Z,140
2017-07-21T17:35:43.826Z,140
2017-07-21T17:37:05.995Z,140
2017-07-21T17:38:27.521Z,140
2017-07-21T17:39:49.931Z,135
2017-07-21T17:41:11.898Z,135
2017-07-21T17:42:34.065Z,135
2017-07-21T17:43:55.925Z,135
2017-07-21T17:45:18.109Z,135
2017-07-21T17:46:39.690Z,130
2017-07-21T17:48:01.548Z,130
2017-07-21T17:49:23.695Z,125
2017-07-21T17:50:45.526Z,125
2017-07-21T17:52:07.686Z,125
2017-07-21T17:53:29.542Z,125
2017-07-21T17:54:51.120Z,125
2017-07-21T17:56:13.216Z,120
2017-07-21T17:57:35.500Z,120
2017-07-21T17:58:57.962Z,120
2017-07-21T18:00:19.826Z,115
2017-07-21T18:01:42.285Z,115
2017-07-21T18:03:04.833Z,115
2017-07-21T18:04:26.453Z,115
2017-07-21T18:05:48.612Z,110
2017-07-21T18:07:11.388Z,110
2017-07-21T18:08:33.563Z,110
2017-07-21T18:09:55.744Z,110
2017-07-21T18:11:17.895Z,105
2017-07-21T18:12:39.826Z,105
2017-07-21T18:14:01.678Z,105
2017-07-21T18:15:24.176Z,100
2017-07-21T18:16:46.433Z,100
2017-07-21T18:18:08.968Z,100
2017-07-21T18:19:31.125Z,95
2017-07-21T18:20:53.294Z,95
2017-07-21T18:22:15.148Z,90
2017-07-21T18:23:37.405Z,90
2017-07-21T18:24:58.925Z,90
2017-07-21T18:26:21.138Z,85
2017-07-21T18:27:43.305Z,85
2017-07-21T18:29:05.841Z,85
2017-07-21T18:30:28.344Z,80
2017-07-21T18:31:50.563Z,80
2017-07-21T18:33:12.723Z,80
2017-07-21T18:34:35.147Z,80
2017-07-21T18:35:57.441Z,80
2017-07-21T18:37:19.708Z,75
2017-07-21T18:38:41.714Z,75
2017-07-21T18:40:04.208Z,75
2017-07-21T18:41:25.773Z,70
2017-07-21T18:42:47.640Z,70
2017-07-21T18:44:09.795Z,70
2017-07-21T18:45:32.263Z,65
2017-07-21T18:46:54.446Z,65
2017-07-21T18:48:16.344Z,65
2017-07-21T18:49:38.499Z,60
2017-07-21T18:51:00.641Z,60
2017-07-21T18:52:22.893Z,60
2017-07-21T18:53:45.390Z,55
2017-07-21T18:55:07.573Z,55
2017-07-21T18:56:29.982Z,50
2017-07-21T18:57:52.169Z,50
2017-07-21T18:59:14.041Z,45
2017-07-21T19:00:36.205Z,45
2017-07-21T19:01:58.615Z,40
2017-07-21T19:03:20.485Z,40
2017-07-21T19:04:42.981Z,35
2017-07-21T19:06:05.463Z,35
2017-07-21T19:07:28.365Z,35